createdAt,value
2018-07-09T00:00:58.503Z,94754.64
2018-07-09T00:03:24.825Z,94745.53
2018-07-09T00:05:51.376Z,94743.35
2018-07-09T00:08:17.912Z,94740.22
2018-07-09T00:10:44.585Z,94750.36
2018-07-09T00:13:10.993Z,94746.50
2018-07-09T00:15:37.423Z,94746.96
2018-07-09T00:18:03.765Z,94749.17
2018-07-09T00:20:30.129Z,94754.75
2018-07-09T00:22:56.470Z,94754.48
2018-07-09T00:25:22.859Z,94741.39
2018-07-09T00:30:21.745Z,94755.36
2018-07-09T00:32:48.115Z,94763.50
2018-07-09T00:35:14.577Z,94764.69
2018-07-09T00:37:41.003Z,94758.30
2018-07-09T00:40:07.368Z,94765.36
2018-07-09T00:42:33.801Z,94758.30
2018-07-09T00:45:00.137Z,94761.84
2018-07-09T00:47:26.515Z,94751.86
2018-07-09T00:49:52.863Z,94751.17
2018-07-09T00:52:19.235Z,94749.48
2018-07-09T00:54:45.835Z,94742.11
2018-07-09T00:57:12.210Z,94746.13
2018-07-09T00:59:38.550Z,94747.25
2018-07-09T01:02:04.914Z,94739.85
2018-07-09T01:04:31.304Z,94745.14
2018-07-09T01:06:57.659Z,94743.20
2018-07-09T01:09:23.979Z,94741.56
2018-07-09T01:11:50.474Z,94735.41
2018-07-09T01:14:16.914Z,94741.48
2018-07-09T01:16:43.230Z,94734.00
2018-07-09T01:19:09.592Z,94734.56
2018-07-09T01:21:36.221Z,94730.38
2018-07-09T01:24:02.763Z,94734.13
2018-07-09T01:26:29.074Z,94738.77
2018-07-09T01:28:55.434Z,94732.79
2018-07-09T01:31:21.768Z,94738.77
2018-07-09T01:33:48.184Z,94749.03
2018-07-09T01:36:14.505Z,94746.83
2018-07-09T01:38:40.883Z,94745.84
2018-07-09T01:41:07.244Z,94740.59
2018-07-09T01:43:33.586Z,94742.30
2018-07-09T01:45:59.956Z,94743.27
2018-07-09T01:48:26.272Z,94744.56
2018-07-09T01:50:52.607Z,94741.00
2018-07-09T01:53:18.983Z,94744.45
2018-07-09T01:55:45.432Z,94737.24
2018-07-09T01:58:11.774Z,94739.20
2018-07-09T02:00:38.183Z,94741.48
2018-07-09T02:03:04.561Z,94740.94
2018-07-09T02:05:30.917Z,94741.05
2018-07-09T02:07:57.280Z,94740.78
2018-07-09T02:10:24.004Z,94741.24
2018-07-09T02:12:50.392Z,94740.75
2018-07-09T02:15:16.759Z,94745.92
2018-07-09T02:17:43.073Z,94739.90
2018-07-09T02:20:09.402Z,94740.25
2018-07-09T02:22:35.821Z,94739.73
2018-07-09T02:25:02.148Z,94744.72
2018-07-09T02:27:28.485Z,94737.52
2018-07-09T02:29:54.814Z,94735.23
2018-07-09T02:32:21.203Z,94737.92
2018-07-09T02:34:47.585Z,94738.45
2018-07-09T02:37:13.911Z,94738.34
2018-07-09T02:39:40.284Z,94738.56
2018-07-09T02:42:06.606Z,94734.48
2018-07-09T02:44:33.020Z,94729.77
2018-07-09T02:46:59.346Z,94732.09
2018-07-09T02:49:25.676Z,94737.08
2018-07-09T02:51:52.047Z,94735.02
2018-07-09T02:54:18.410Z,94741.56
2018-07-09T02:56:44.926Z,94736.42
2018-07-09T02:59:11.315Z,94735.84
2018-07-09T03:01:37.735Z,94744.33
2018-07-09T03:04:04.137Z,94724.45
2018-07-09T03:06:30.504Z,94736.77
2018-07-09T03:08:56.855Z,94739.65
2018-07-09T03:11:23.211Z,94742.27
2018-07-09T03:13:49.617Z,94748.11
2018-07-09T03:16:16.089Z,94748.76
2018-07-09T03:18:42.420Z,94751.58
2018-07-09T03:21:08.839Z,94754.37
2018-07-09T03:23:35.230Z,94752.75
2018-07-09T03:26:01.547Z,94750.59
2018-07-09T03:28:27.894Z,94754.28
2018-07-09T03:30:54.339Z,94757.91
2018-07-09T03:33:21.527Z,94760.70
2018-07-09T03:35:47.861Z,94759.98
2018-07-09T03:38:14.189Z,94761.28
2018-07-09T03:40:40.624Z,94762.13
2018-07-09T03:43:06.982Z,94759.67
2018-07-09T03:45:33.365Z,94763.56
2018-07-09T03:47:59.716Z,94761.62
2018-07-09T03:50:26.135Z,94759.73
2018-07-09T03:52:52.456Z,94764.45
2018-07-09T03:55:18.915Z,94758.67
2018-07-09T03:57:45.319Z,94762.75
2018-07-09T04:00:11.678Z,94761.92
2018-07-09T04:02:38.053Z,94759.11
2018-07-09T04:05:04.995Z,94766.26
2018-07-09T04:07:31.363Z,94774.61
2018-07-09T04:09:57.762Z,94772.61
2018-07-09T04:12:24.171Z,94774.06
2018-07-09T04:14:50.568Z,94774.01
2018-07-09T04:17:16.884Z,94779.87
2018-07-09T04:19:43.267Z,94777.33
2018-07-09T04:22:09.635Z,94782.20
2018-07-09T04:24:36.171Z,94779.63
2018-07-09T04:27:02.523Z,94786.55
2018-07-09T04:29:28.916Z,94794.28
2018-07-09T04:31:55.327Z,94786.23
2018-07-09T04:34:21.775Z,94790.72
2018-07-09T04:36:48.154Z,94793.70
2018-07-09T04:39:14.499Z,94787.27
2018-07-09T04:41:40.900Z,94787.37
2018-07-09T04:44:07.289Z,94790.53
2018-07-09T04:46:33.614Z,94791.70
2018-07-09T04:49:00.029Z,94784.14
2018-07-09T04:51:26.396Z,94792.50
2018-07-09T04:53:52.739Z,94791.92
2018-07-09T04:56:19.117Z,94794.30
2018-07-09T04:58:45.481Z,94794.20
2018-07-09T05:01:12.188Z,94796.63
2018-07-09T05:03:38.571Z,94791.62
2018-07-09T05:06:04.954Z,94798.80
2018-07-09T05:08:31.298Z,94801.32
2018-07-09T05:10:57.740Z,94803.64
2018-07-09T05:13:24.118Z,94804.11
2018-07-09T05:15:50.454Z,94804.73
2018-07-09T05:18:16.826Z,94800.52
2018-07-09T05:20:43.244Z,94801.34
2018-07-09T05:23:09.683Z,94801.03
2018-07-09T05:25:36.096Z,94804.02
2018-07-09T05:28:02.470Z,94802.02
2018-07-09T05:30:28.867Z,94798.93
2018-07-09T05:32:55.332Z,94789.53
2018-07-09T05:35:21.785Z,94795.53
2018-07-09T05:37:48.128Z,94790.84
2018-07-09T05:40:14.650Z,94786.16
2018-07-09T05:42:41.134Z,94790.86
2018-07-09T05:45:07.585Z,94794.62
2018-07-09T05:47:34.060Z,94795.59
2018-07-09T05:50:00.525Z,94786.74
2018-07-09T05:52:26.920Z,94794.53
2018-07-09T05:54:53.460Z,94786.59
2018-07-09T05:57:19.896Z,94783.55
2018-07-09T05:59:46.521Z,94788.88
2018-07-09T06:02:13.041Z,94783.19
2018-07-09T06:04:39.507Z,94787.73
2018-07-09T06:07:06.076Z,94790.26
2018-07-09T06:09:32.445Z,94782.84
2018-07-09T06:11:59.032Z,94787.58
2018-07-09T06:14:25.519Z,94788.45
2018-07-09T06:16:51.941Z,94785.36
2018-07-09T06:19:18.469Z,94774.70
2018-07-09T06:21:44.923Z,94782.72
2018-07-09T06:24:11.464Z,94784.20
2018-07-09T06:26:37.912Z,94778.08
2018-07-09T06:29:04.684Z,94775.87
2018-07-09T06:31:31.219Z,94784.31
2018-07-09T06:33:58.170Z,94769.06
2018-07-09T06:36:25.053Z,94773.70
2018-07-09T06:38:52.020Z,94779.61
2018-07-09T06:41:19.156Z,94787.58
2018-07-09T06:43:46.396Z,94783.88
2018-07-09T06:46:13.108Z,94772.61
2018-07-09T06:48:40.202Z,94772.95
2018-07-09T06:51:06.851Z,94762.38
2018-07-09T06:53:33.330Z,94779.09
2018-07-09T06:56:00.123Z,94769.94
2018-07-09T06:58:26.707Z,94768.41
2018-07-09T07:00:54.841Z,94768.56
2018-07-09T07:03:21.401Z,94767.97
2018-07-09T07:05:47.908Z,94774.53
2018-07-09T07:08:14.548Z,94766.53
2018-07-09T07:10:41.280Z,94781.19
2018-07-09T07:13:07.688Z,94779.02
2018-07-09T07:15:34.084Z,94787.45
2018-07-09T07:18:00.876Z,94784.30
2018-07-09T07:20:27.537Z,94774.41
2018-07-09T07:22:54.338Z,94778.42
2018-07-09T07:25:22.939Z,94771.27
2018-07-09T07:27:49.681Z,94768.25
2018-07-09T07:30:16.494Z,94771.14
2018-07-09T07:32:43.310Z,94776.48
2018-07-09T07:35:10.219Z,94769.89
2018-07-09T07:37:36.957Z,94762.09
2018-07-09T07:40:03.732Z,94761.05
2018-07-09T07:42:30.569Z,94769.33
2018-07-09T07:44:57.643Z,94770.34
2018-07-09T07:47:24.622Z,94770.75
2018-07-09T07:49:51.439Z,94778.83
2018-07-09T07:52:17.986Z,94778.31
2018-07-09T07:54:45.057Z,94777.09
2018-07-09T07:57:11.631Z,94773.53
2018-07-09T07:59:38.856Z,94765.53
2018-07-09T08:02:05.687Z,94765.52
2018-07-09T08:04:33.421Z,94762.46
2018-07-09T08:07:00.067Z,94761.43
2018-07-09T08:09:26.839Z,94772.87
2018-07-09T08:11:53.551Z,94774.58
2018-07-09T08:14:20.120Z,94770.27
2018-07-09T08:16:47.055Z,94768.72
2018-07-09T08:19:14.162Z,94772.93
2018-07-09T08:21:41.003Z,94778.36
2018-07-09T08:24:07.835Z,94770.21
2018-07-09T08:26:34.575Z,94773.41
2018-07-09T08:29:01.367Z,94775.92
2018-07-09T08:31:27.877Z,94778.64
2018-07-09T08:33:54.531Z,94772.50
2018-07-09T08:36:21.927Z,94782.23
2018-07-09T08:38:49.136Z,94782.51
2018-07-09T08:41:16.069Z,94782.39
2018-07-09T08:43:44.348Z,94784.56
2018-07-09T08:46:11.117Z,94786.66
2018-07-09T08:48:37.969Z,94787.06
2018-07-09T08:51:04.845Z,94784.48
2018-07-09T08:53:31.243Z,94796.94
2018-07-09T08:55:58.069Z,94786.47
2018-07-09T08:58:24.524Z,94792.91
2018-07-09T09:00:58.522Z,94787.20
2018-07-09T09:03:25.476Z,94785.66
2018-07-09T09:05:51.911Z,94785.30
2018-07-09T09:08:18.296Z,94789.87
2018-07-09T09:10:44.795Z,94791.01
2018-07-09T09:13:11.223Z,94793.88
2018-07-09T09:15:37.801Z,94793.59
2018-07-09T09:18:04.593Z,94787.89
2018-07-09T09:20:31.324Z,94788.58
2018-07-09T09:22:57.834Z,94785.97
2018-07-09T09:25:24.658Z,94786.67
2018-07-09T09:27:51.338Z,94785.70
2018-07-09T09:30:18.202Z,94781.83
2018-07-09T09:32:44.791Z,94786.41
2018-07-09T09:35:11.278Z,94793.88
2018-07-09T09:37:37.776Z,94788.91
2018-07-09T09:40:04.623Z,94790.59
2018-07-09T09:42:31.254Z,94797.02
2018-07-09T09:44:57.867Z,94798.11
2018-07-09T09:47:25.133Z,94787.42
2018-07-09T09:49:51.744Z,94795.84
2018-07-09T09:52:18.259Z,94805.98
2018-07-09T09:54:45.035Z,94798.34
2018-07-09T09:57:11.670Z,94795.86
2018-07-09T09:59:38.397Z,94794.84
2018-07-09T10:02:04.947Z,94794.69
2018-07-09T10:04:31.554Z,94785.92
2018-07-09T10:06:58.390Z,94784.81
2018-07-09T10:09:24.846Z,94785.25
2018-07-09T10:11:51.495Z,94794.55
2018-07-09T10:14:18.165Z,94788.92
2018-07-09T10:16:45.266Z,94787.77
2018-07-09T10:19:11.693Z,94781.63
2018-07-09T10:21:38.136Z,94787.97
2018-07-09T10:24:04.757Z,94782.72
2018-07-09T10:26:31.344Z,94781.17
2018-07-09T10:28:57.934Z,94776.45
2018-07-09T10:31:24.899Z,94772.73
2018-07-09T10:33:51.709Z,94776.61
2018-07-09T10:36:18.237Z,94768.86
2018-07-09T10:38:44.669Z,94767.00
2018-07-09T10:41:11.994Z,94768.84
2018-07-09T10:43:38.745Z,94767.41
2018-07-09T10:46:05.658Z,94762.30
2018-07-09T10:48:32.413Z,94756.25
2018-07-09T10:50:59.335Z,94747.97
2018-07-09T10:53:25.872Z,94749.86
2018-07-09T10:55:52.337Z,94755.09
2018-07-09T10:58:19.348Z,94742.55
2018-07-09T11:00:46.488Z,94750.76
2018-07-09T11:03:13.265Z,94749.78
2018-07-09T11:05:39.792Z,94743.39
2018-07-09T11:08:06.678Z,94740.96
2018-07-09T11:10:33.661Z,94745.30
2018-07-09T11:13:00.270Z,94740.98
2018-07-09T11:15:27.387Z,94742.16
2018-07-09T11:17:54.848Z,94750.27
2018-07-09T11:20:21.823Z,94750.67
2018-07-09T11:22:48.314Z,94750.20
2018-07-09T11:25:14.821Z,94745.63
2018-07-09T11:27:41.734Z,94739.25
2018-07-09T11:30:08.589Z,94737.47
2018-07-09T11:32:35.099Z,94732.91
2018-07-09T11:35:01.823Z,94730.75
2018-07-09T11:37:28.748Z,94751.42
2018-07-09T11:39:55.634Z,94748.61
2018-07-09T11:42:22.810Z,94741.14
2018-07-09T11:44:49.434Z,94745.84
2018-07-09T11:47:16.076Z,94742.72
2018-07-09T11:49:43.433Z,94740.48
2018-07-09T11:52:10.207Z,94730.45
2018-07-09T11:54:36.847Z,94742.09
2018-07-09T11:57:03.297Z,94745.56
2018-07-09T11:59:30.451Z,94729.31
2018-07-09T12:01:59.834Z,94736.02
2018-07-09T12:04:26.789Z,94730.39
2018-07-09T12:06:53.597Z,94733.04
2018-07-09T12:09:20.232Z,94736.17
2018-07-09T12:11:46.825Z,94737.46
2018-07-09T12:14:13.578Z,94724.75
2018-07-09T12:16:41.385Z,94724.05
2018-07-09T12:19:08.536Z,94731.14
2018-07-09T12:21:35.558Z,94733.77
2018-07-09T12:24:02.961Z,94730.78
2018-07-09T12:26:29.909Z,94718.28
2018-07-09T12:28:57.065Z,94726.02
2018-07-09T12:31:24.555Z,94724.66
2018-07-09T12:33:52.064Z,94738.22
2018-07-09T12:36:19.883Z,94722.70
2018-07-09T12:38:47.092Z,94727.39
2018-07-09T12:41:14.067Z,94728.28
2018-07-09T12:43:41.118Z,94712.48
2018-07-09T12:46:08.486Z,94714.88
2018-07-09T12:48:35.412Z,94709.30
2018-07-09T12:51:03.705Z,94706.70
2018-07-09T12:53:30.703Z,94704.13
2018-07-09T12:55:57.788Z,94700.94
2018-07-09T12:58:24.792Z,94694.83
2018-07-09T13:00:52.157Z,94685.93
2018-07-09T13:03:19.661Z,94694.70
2018-07-09T13:05:46.646Z,94703.27
2018-07-09T13:08:13.519Z,94683.81
2018-07-09T13:13:19.130Z,94688.17
2018-07-09T13:15:45.836Z,94687.41
2018-07-09T13:18:12.414Z,94679.66
2018-07-09T13:20:38.963Z,94691.77
2018-07-09T13:23:06.347Z,94702.39
2018-07-09T13:25:33.658Z,94693.56
2018-07-09T13:28:01.367Z,94694.28
2018-07-09T13:30:28.206Z,94685.11
2018-07-09T13:32:55.600Z,94688.64
2018-07-09T13:35:22.848Z,94684.58
2018-07-09T13:37:53.555Z,94679.44
2018-07-09T13:40:23.987Z,94683.03
2018-07-09T13:42:51.125Z,94684.83
2018-07-09T13:45:18.187Z,94683.41
2018-07-09T13:47:45.619Z,94692.99
2018-07-09T13:50:12.689Z,94691.92
2018-07-09T13:52:44.922Z,94702.77
2018-07-09T13:55:11.841Z,94697.85
2018-07-09T13:57:38.380Z,94697.25
2018-07-09T14:00:05.983Z,94690.56
2018-07-09T14:02:32.948Z,94680.31
2018-07-09T14:04:59.415Z,94676.78
2018-07-09T14:07:25.969Z,94699.30
2018-07-09T14:09:52.386Z,94695.92
2018-07-09T14:12:19.897Z,94702.67
2018-07-09T14:17:18.072Z,94692.11
2018-07-09T14:19:44.723Z,94682.11
2018-07-09T14:22:11.140Z,94687.97
2018-07-09T14:24:37.604Z,94683.88
2018-07-09T14:27:03.950Z,94679.75
2018-07-09T14:29:30.680Z,94690.03
2018-07-09T14:31:57.096Z,94686.22
2018-07-09T14:34:23.806Z,94688.45
2018-07-09T14:36:50.451Z,94686.16
2018-07-09T14:39:17.077Z,94687.98
2018-07-09T14:41:43.736Z,94688.70
2018-07-09T14:44:10.428Z,94689.09
2018-07-09T14:46:37.318Z,94685.91
2018-07-09T14:49:03.748Z,94678.74
2018-07-09T14:51:30.240Z,94668.81
2018-07-09T14:53:56.892Z,94667.55
2018-07-09T14:56:23.778Z,94653.36
2018-07-09T14:58:50.234Z,94663.17
2018-07-09T15:01:16.744Z,94660.89
2018-07-09T15:03:43.234Z,94668.34
2018-07-09T15:06:09.937Z,94664.59
2018-07-09T15:08:36.396Z,94662.98
2018-07-09T15:11:02.957Z,94664.30
2018-07-09T15:13:29.678Z,94678.62
2018-07-09T15:15:56.132Z,94678.02
2018-07-09T15:18:22.523Z,94688.98
2018-07-09T15:20:49.059Z,94691.70
2018-07-09T15:23:15.533Z,94686.80
2018-07-09T15:25:41.894Z,94688.19
2018-07-09T15:28:08.271Z,94685.75
2018-07-09T15:30:34.618Z,94684.44
2018-07-09T15:33:01.010Z,94683.17
2018-07-09T15:35:27.355Z,94697.04
2018-07-09T15:37:53.708Z,94696.56
2018-07-09T15:40:20.046Z,94697.45
2018-07-09T15:42:46.447Z,94703.72
2018-07-09T15:45:12.792Z,94715.94
2018-07-09T15:47:39.131Z,94707.88
2018-07-09T15:50:05.510Z,94716.30
2018-07-09T15:52:31.892Z,94723.22
2018-07-09T15:54:58.281Z,94726.29
2018-07-09T15:57:24.611Z,94724.38
2018-07-09T15:59:51.006Z,94734.53
2018-07-09T16:02:17.339Z,94729.08
2018-07-09T16:04:43.693Z,94728.05
2018-07-09T16:07:10.097Z,94727.16
2018-07-09T16:09:36.428Z,94725.09
2018-07-09T16:12:02.843Z,94728.53
2018-07-09T16:14:29.221Z,94728.53
2018-07-09T16:16:55.562Z,94723.86
2018-07-09T16:19:21.939Z,94727.67
2018-07-09T16:21:48.294Z,94723.38
2018-07-09T16:24:14.648Z,94723.16
2018-07-09T16:26:40.970Z,94725.80
2018-07-09T16:29:07.419Z,94730.55
2018-07-09T16:31:33.799Z,94724.00
2018-07-09T16:34:00.168Z,94725.64
2018-07-09T16:36:26.629Z,94713.94
2018-07-09T16:38:52.897Z,94717.09
2018-07-09T16:41:19.248Z,94725.97
2018-07-09T16:43:45.689Z,94726.52
2018-07-09T16:46:12.055Z,94730.80
2018-07-09T16:48:38.437Z,94728.48
2018-07-09T16:51:04.772Z,94723.66
2018-07-09T16:53:31.232Z,94730.45
2018-07-09T16:55:57.587Z,94727.73
2018-07-09T16:58:23.942Z,94736.34
2018-07-09T17:00:50.314Z,94738.45
2018-07-09T17:03:16.773Z,94731.30
2018-07-09T17:05:43.108Z,94742.87
2018-07-09T17:08:09.544Z,94739.69
2018-07-09T17:10:35.867Z,94740.59
2018-07-09T17:13:02.208Z,94737.85
2018-07-09T17:15:28.550Z,94742.81
2018-07-09T17:17:54.937Z,94743.92
2018-07-09T17:20:21.343Z,94743.51
2018-07-09T17:22:47.711Z,94737.99
2018-07-09T17:25:14.097Z,94747.23
2018-07-09T17:27:40.589Z,94736.35
2018-07-09T17:30:07.309Z,94738.88
2018-07-09T17:32:33.933Z,94739.08
2018-07-09T17:35:00.637Z,94743.86
2018-07-09T17:37:27.304Z,94734.86
2018-07-09T17:39:53.906Z,94736.50
2018-07-09T17:42:20.253Z,94733.30
2018-07-09T17:44:46.707Z,94735.42
2018-07-09T17:47:13.108Z,94738.47
2018-07-09T17:49:39.442Z,94739.70
2018-07-09T17:52:05.845Z,94736.03
2018-07-09T17:54:32.220Z,94738.41
2018-07-09T17:56:58.830Z,94736.71
2018-07-09T17:59:25.576Z,94739.61
2018-07-09T18:01:52.209Z,94745.07
2018-07-09T18:04:18.790Z,94757.78
2018-07-09T18:06:45.429Z,94756.89
2018-07-09T18:09:11.778Z,94759.52
2018-07-09T18:11:38.147Z,94773.00
2018-07-09T18:14:04.791Z,94770.89
2018-07-09T18:16:31.115Z,94775.58
2018-07-09T18:18:57.507Z,94781.36
2018-07-09T18:21:23.912Z,94780.66
2018-07-09T18:23:50.568Z,94774.39
2018-07-09T18:26:16.989Z,94782.77
2018-07-09T18:28:43.360Z,94779.31
2018-07-09T18:31:09.785Z,94776.70
2018-07-09T18:33:36.376Z,94791.37
2018-07-09T18:36:02.700Z,94794.02
2018-07-09T18:38:29.094Z,94787.30
2018-07-09T18:40:55.449Z,94797.41
2018-07-09T18:43:22.123Z,94798.09
2018-07-09T18:45:48.795Z,94802.58
2018-07-09T18:48:15.165Z,94804.57
2018-07-09T18:50:41.491Z,94804.80
2018-07-09T18:53:08.146Z,94804.80
2018-07-09T18:55:34.482Z,94805.84
2018-07-09T18:58:00.897Z,94812.61
2018-07-09T19:00:27.313Z,94810.55
2018-07-09T19:02:53.744Z,94809.30
2018-07-09T19:05:20.156Z,94815.42
2018-07-09T19:07:46.760Z,94818.53
2018-07-09T19:10:13.132Z,94823.67
2018-07-09T19:12:39.583Z,94825.81
2018-07-09T19:15:06.296Z,94822.47
2018-07-09T19:17:32.874Z,94825.72
2018-07-09T19:19:59.437Z,94833.87
2018-07-09T19:22:25.848Z,94823.78
2018-07-09T19:24:52.314Z,94827.98
2018-07-09T19:27:19.048Z,94832.84
2018-07-09T19:29:46.643Z,94835.08
2018-07-09T19:32:13.558Z,94836.98
2018-07-09T19:34:40.036Z,94826.09
2018-07-09T19:37:06.477Z,94838.36
2018-07-09T19:39:32.906Z,94844.61
2018-07-09T19:41:59.260Z,94847.98
2018-07-09T19:44:25.617Z,94842.98
2018-07-09T19:46:52.058Z,94855.52
2018-07-09T19:49:18.488Z,94860.06
2018-07-09T19:51:44.846Z,94857.45
2018-07-09T19:54:11.172Z,94853.65
2018-07-09T19:56:37.546Z,94855.25
2018-07-09T19:59:04.025Z,94853.09
2018-07-09T20:01:30.343Z,94848.08
2018-07-09T20:03:56.662Z,94849.92
2018-07-09T20:06:23.029Z,94847.25
2018-07-09T20:08:49.452Z,94847.45
2018-07-09T20:11:15.792Z,94844.51
2018-07-09T20:13:42.119Z,94842.97
2018-07-09T20:16:08.448Z,94834.83
2018-07-09T20:18:35.306Z,94847.67
2018-07-09T20:21:01.752Z,94853.28
2018-07-09T20:23:28.070Z,94852.67
2018-07-09T20:25:54.448Z,94848.63
2018-07-09T20:28:22.926Z,94851.59
2018-07-09T20:30:49.347Z,94855.35
2018-07-09T20:33:15.958Z,94852.41
2018-07-09T20:35:42.289Z,94857.41
2018-07-09T20:38:08.766Z,94859.89
2018-07-09T20:40:36.429Z,94860.71
2018-07-09T20:43:03.241Z,94861.81
2018-07-09T20:45:31.169Z,94848.79
2018-07-09T20:47:58.063Z,94850.20
2018-07-09T20:50:24.907Z,94855.35
2018-07-09T20:52:51.408Z,94853.39
2018-07-09T20:55:21.611Z,94854.91
2018-07-09T20:57:48.046Z,94856.77
2018-07-09T21:00:14.449Z,94853.75
2018-07-09T21:02:40.831Z,94857.80
2018-07-09T21:05:07.603Z,94851.89
2018-07-09T21:07:34.343Z,94851.13
2018-07-09T21:10:00.687Z,94861.39
2018-07-09T21:12:27.120Z,94861.84
2018-07-09T21:14:53.533Z,94858.40
2018-07-09T21:17:19.981Z,94856.53
2018-07-09T21:19:46.576Z,94857.52
2018-07-09T21:22:13.003Z,94864.99
2018-07-09T21:24:39.339Z,94857.63
2018-07-09T21:27:06.840Z,94859.94
2018-07-09T21:29:33.159Z,94864.84
2018-07-09T21:31:59.482Z,94858.02
2018-07-09T21:34:30.010Z,94855.13
2018-07-09T21:37:00.095Z,94853.44
2018-07-09T21:39:27.474Z,94856.43
2018-07-09T21:41:54.550Z,94859.72
2018-07-09T21:44:22.363Z,94856.73
2018-07-09T21:46:49.229Z,94850.70
2018-07-09T21:49:15.724Z,94851.43
2018-07-09T21:51:42.251Z,94836.36
2018-07-09T21:54:09.177Z,94845.96
2018-07-09T21:56:35.805Z,94846.16
2018-07-09T21:59:02.352Z,94840.33
2018-07-09T22:01:29.135Z,94829.45
2018-07-09T22:03:55.691Z,94836.92
2018-07-09T22:06:22.380Z,94829.28
2018-07-09T22:08:49.713Z,94834.60
2018-07-09T22:11:16.778Z,94840.17
2018-07-09T22:13:43.464Z,94834.09
2018-07-09T22:16:10.514Z,94835.28
2018-07-09T22:18:37.219Z,94825.77
2018-07-09T22:21:07.863Z,94828.63
2018-07-09T22:23:34.536Z,94827.59
2018-07-09T22:26:00.906Z,94835.08
2018-07-09T22:28:28.207Z,94835.16
2018-07-09T22:30:55.808Z,94836.92
2018-07-09T22:33:22.487Z,94829.02
2018-07-09T22:35:49.331Z,94825.57
2018-07-09T22:38:16.069Z,94832.13
2018-07-09T22:40:42.485Z,94834.44
2018-07-09T22:43:09.362Z,94831.98
2018-07-09T22:45:36.074Z,94842.39
2018-07-09T22:48:02.411Z,94843.02
2018-07-09T22:50:29.586Z,94843.22
2018-07-09T22:52:56.343Z,94833.87
2018-07-09T22:55:22.802Z,94838.73
2018-07-09T22:57:49.531Z,94827.03
2018-07-09T23:00:16.773Z,94825.02
2018-07-09T23:02:43.225Z,94836.84
2018-07-09T23:05:09.592Z,94839.41
2018-07-09T23:07:36.841Z,94839.00
2018-07-09T23:10:04.110Z,94832.91
2018-07-09T23:12:30.533Z,94824.65
2018-07-09T23:14:57.693Z,94832.05
2018-07-09T23:17:24.132Z,94829.97
2018-07-09T23:19:50.458Z,94825.11
2018-07-09T23:22:16.817Z,94826.16
2018-07-09T23:24:43.507Z,94831.16
2018-07-09T23:27:10.253Z,94830.59
2018-07-09T23:29:36.590Z,94828.00
2018-07-09T23:32:03.592Z,94824.25
2018-07-09T23:34:30.093Z,94829.14
2018-07-09T23:36:56.576Z,94831.32
2018-07-09T23:39:23.735Z,94832.97
2018-07-09T23:41:52.091Z,94828.98
2018-07-09T23:44:18.493Z,94835.02
2018-07-09T23:46:45.383Z,94840.33
2018-07-09T23:49:12.349Z,94830.12
2018-07-09T23:51:38.659Z,94833.12
2018-07-09T23:54:06.519Z,94838.28
2018-07-09T23:56:32.882Z,94828.98
2018-07-09T23:58:59.222Z,94829.52
